sensor_id;sensor_type;location;lat;lon;timestamp;temperature;humidity
13642;DHT22;6894;52.196;9.904;2022-08-06T00:01:35;14.10;99.90
13642;DHT22;6894;52.196;9.904;2022-08-06T00:04:03;14.10;99.90
13642;DHT22;6894;52.196;9.904;2022-08-06T00:06:31;14.00;99.90
13642;DHT22;6894;52.196;9.904;2022-08-06T00:08:57;14.00;99.90
13642;DHT22;6894;52.196;9.904;2022-08-06T00:11:24;14.00;99.90
13642;DHT22;6894;52.196;9.904;2022-08-06T00:13:51;14.10;99.90
13642;DHT22;6894;52.196;9.904;2022-08-06T00:16:18;14.20;99.90
13642;DHT22;6894;52.196;9.904;2022-08-06T00:18:45;14.20;99.90
13642;DHT22;6894;52.196;9.904;2022-08-06T00:21:13;14.30;99.90
13642;DHT22;6894;52.196;9.904;2022-08-06T00:23:40;14.40;99.90
13642;DHT22;6894;52.196;9.904;2022-08-06T00:26:07;14.30;99.90
13642;DHT22;6894;52.196;9.904;2022-08-06T00:28:33;14.40;99.90
13642;DHT22;6894;52.196;9.904;2022-08-06T00:31:01;14.30;99.90
13642;DHT22;6894;52.196;9.904;2022-08-06T00:33:28;14.20;99.90
13642;DHT22;6894;52.196;9.904;2022-08-06T00:35:55;14.10;99.90
13642;DHT22;6894;52.196;9.904;2022-08-06T00:38:24;14.10;99.90
13642;DHT22;6894;52.196;9.904;2022-08-06T00:40:51;14.10;99.90
13642;DHT22;6894;52.196;9.904;2022-08-06T00:43:18;14.20;99.90
13642;DHT22;6894;52.196;9.904;2022-08-06T00:45:44;14.10;99.90
13642;DHT22;6894;52.196;9.904;2022-08-06T00:48:12;14.30;99.90
13642;DHT22;6894;52.196;9.904;2022-08-06T00:50:39;14.20;99.90
13642;DHT22;6894;52.196;9.904;2022-08-06T00:53:06;14.20;99.90
13642;DHT22;6894;52.196;9.904;2022-08-06T00:55:34;14.20;99.90
13642;DHT22;6894;52.196;9.904;2022-08-06T00:58:00;14.00;99.90
13642;DHT22;6894;52.196;9.904;2022-08-06T01:00:27;13.90;99.90
13642;DHT22;6894;52.196;9.904;2022-08-06T01:02:54;13.80;99.90
13642;DHT22;6894;52.196;9.904;2022-08-06T01:05:21;13.70;99.90
13642;DHT22;6894;52.196;9.904;2022-08-06T01:07:48;13.80;99.90
13642;DHT22;6894;52.196;9.904;2022-08-06T01:10:15;13.80;99.90
13642;DHT22;6894;52.196;9.904;2022-08-06T01:12:43;13.80;99.90
13642;DHT22;6894;52.196;9.904;2022-08-06T01:15:10;13.80;99.90
13642;DHT22;6894;52.196;9.904;2022-08-06T01:17:41;13.80;99.90
13642;DHT22;6894;52.196;9.904;2022-08-06T01:20:18;13.90;99.90
13642;DHT22;6894;52.196;9.904;2022-08-06T01:23:07;13.90;99.90
13642;DHT22;6894;52.196;9.904;2022-08-06T01:25:52;14.00;99.90
13642;DHT22;6894;52.196;9.904;2022-08-06T01:28:28;13.90;99.90
13642;DHT22;6894;52.196;9.904;2022-08-06T01:31:01;13.90;99.90
13642;DHT22;6894;52.196;9.904;2022-08-06T01:33:33;13.80;99.90
13642;DHT22;6894;52.196;9.904;2022-08-06T01:36:05;13.80;99.90
13642;DHT22;6894;52.196;9.904;2022-08-06T01:38:37;13.90;99.90
13642;DHT22;6894;52.196;9.904;2022-08-06T01:41:08;14.00;99.90
13642;DHT22;6894;52.196;9.904;2022-08-06T01:43:38;13.90;99.90
13642;DHT22;6894;52.196;9.904;2022-08-06T01:46:08;13.80;99.90
13642;DHT22;6894;52.196;9.904;2022-08-06T01:48:37;13.70;99.90
13642;DHT22;6894;52.196;9.904;2022-08-06T01:51:05;13.70;99.90
13642;DHT22;6894;52.196;9.904;2022-08-06T01:53:36;13.60;99.90
13642;DHT22;6894;52.196;9.904;2022-08-06T01:56:04;13.60;99.90
13642;DHT22;6894;52.196;9.904;2022-08-06T01:58:36;13.50;99.90
13642;DHT22;6894;52.196;9.904;2022-08-06T02:01:07;13.60;99.90
13642;DHT22;6894;52.196;9.904;2022-08-06T02:03:37;13.40;99.90
13642;DHT22;6894;52.196;9.904;2022-08-06T02:06:06;13.30;99.90
13642;DHT22;6894;52.196;9.904;2022-08-06T02:08:34;13.30;99.90
13642;DHT22;6894;52.196;9.904;2022-08-06T02:11:04;13.50;99.90
13642;DHT22;6894;52.196;9.904;2022-08-06T02:13:33;13.40;99.90
13642;DHT22;6894;52.196;9.904;2022-08-06T02:16:02;13.40;99.90
13642;DHT22;6894;52.196;9.904;2022-08-06T02:18:34;13.50;99.90
13642;DHT22;6894;52.196;9.904;2022-08-06T02:21:05;13.50;99.90
13642;DHT22;6894;52.196;9.904;2022-08-06T02:23:33;13.40;99.90
13642;DHT22;6894;52.196;9.904;2022-08-06T02:26:02;13.30;99.90
13642;DHT22;6894;52.196;9.904;2022-08-06T02:28:31;13.20;99.90
13642;DHT22;6894;52.196;9.904;2022-08-06T02:30:59;13.30;99.90
13642;DHT22;6894;52.196;9.904;2022-08-06T02:33:27;13.30;99.90
13642;DHT22;6894;52.196;9.904;2022-08-06T02:35:59;13.30;99.90
13642;DHT22;6894;52.196;9.904;2022-08-06T02:38:34;13.40;99.90
13642;DHT22;6894;52.196;9.904;2022-08-06T02:41:07;13.40;99.90
13642;DHT22;6894;52.196;9.904;2022-08-06T02:43:39;13.40;99.90
13642;DHT22;6894;52.196;9.904;2022-08-06T02:46:11;13.30;99.90
13642;DHT22;6894;52.196;9.904;2022-08-06T02:48:42;13.40;99.90
13642;DHT22;6894;52.196;9.904;2022-08-06T02:51:14;13.30;99.90
13642;DHT22;6894;52.196;9.904;2022-08-06T02:53:46;13.40;99.90
13642;DHT22;6894;52.196;9.904;2022-08-06T02:56:17;13.30;99.90
13642;DHT22;6894;52.196;9.904;2022-08-06T02:58:46;13.30;99.90
13642;DHT22;6894;52.196;9.904;2022-08-06T03:01:17;13.30;99.90
13642;DHT22;6894;52.196;9.904;2022-08-06T03:03:48;13.30;99.90
13642;DHT22;6894;52.196;9.904;2022-08-06T03:06:18;13.20;99.90
13642;DHT22;6894;52.196;9.904;2022-08-06T03:08:47;13.10;99.90
13642;DHT22;6894;52.196;9.904;2022-08-06T03:11:16;13.10;99.90
13642;DHT22;6894;52.196;9.904;2022-08-06T03:13:44;12.90;99.90
13642;DHT22;6894;52.196;9.904;2022-08-06T03:16:12;12.80;99.90
13642;DHT22;6894;52.196;9.904;2022-08-06T03:18:42;12.80;99.90
13642;DHT22;6894;52.196;9.904;2022-08-06T03:21:09;12.60;99.90
13642;DHT22;6894;52.196;9.904;2022-08-06T03:23:39;12.40;99.90
13642;DHT22;6894;52.196;9.904;2022-08-06T03:26:07;12.10;99.90
13642;DHT22;6894;52.196;9.904;2022-08-06T03:28:36;12.00;99.90
13642;DHT22;6894;52.196;9.904;2022-08-06T03:31:03;11.90;99.90
13642;DHT22;6894;52.196;9.904;2022-08-06T03:33:32;11.80;99.90
13642;DHT22;6894;52.196;9.904;2022-08-06T03:36:00;11.80;99.90
13642;DHT22;6894;52.196;9.904;2022-08-06T03:38:31;11.60;99.90
13642;DHT22;6894;52.196;9.904;2022-08-06T03:41:01;11.70;99.90
13642;DHT22;6894;52.196;9.904;2022-08-06T03:43:29;11.70;99.90
13642;DHT22;6894;52.196;9.904;2022-08-06T03:45:59;11.70;99.90
13642;DHT22;6894;52.196;9.904;2022-08-06T03:48:31;11.80;99.90
13642;DHT22;6894;52.196;9.904;2022-08-06T03:51:02;11.90;99.90
13642;DHT22;6894;52.196;9.904;2022-08-06T03:53:32;12.50;99.90
13642;DHT22;6894;52.196;9.904;2022-08-06T03:56:04;11.90;99.90
13642;DHT22;6894;52.196;9.904;2022-08-06T03:58:36;11.90;99.90
13642;DHT22;6894;52.196;9.904;2022-08-06T04:01:06;11.80;99.90
13642;DHT22;6894;52.196;9.904;2022-08-06T04:03:34;11.90;99.90
13642;DHT22;6894;52.196;9.904;2022-08-06T04:06:03;11.80;99.90
13642;DHT22;6894;52.196;9.904;2022-08-06T04:08:31;11.80;99.90
13642;DHT22;6894;52.196;9.904;2022-08-06T04:10:59;12.00;99.90
13642;DHT22;6894;52.196;9.904;2022-08-06T04:13:29;12.00;99.90
13642;DHT22;6894;52.196;9.904;2022-08-06T04:15:56;12.10;99.90
13642;DHT22;6894;52.196;9.904;2022-08-06T04:18:27;12.20;99.90
13642;DHT22;6894;52.196;9.904;2022-08-06T04:20:57;12.10;99.90
13642;DHT22;6894;52.196;9.904;2022-08-06T04:23:24;12.20;99.90
13642;DHT22;6894;52.196;9.904;2022-08-06T04:25:53;12.00;99.90
13642;DHT22;6894;52.196;9.904;2022-08-06T04:28:22;11.90;99.90
13642;DHT22;6894;52.196;9.904;2022-08-06T04:30:51;12.10;99.90
13642;DHT22;6894;52.196;9.904;2022-08-06T04:33:21;12.10;99.90
13642;DHT22;6894;52.196;9.904;2022-08-06T04:35:49;12.10;99.90
13642;DHT22;6894;52.196;9.904;2022-08-06T04:38:17;12.30;99.90
13642;DHT22;6894;52.196;9.904;2022-08-06T04:40:44;12.40;99.90
13642;DHT22;6894;52.196;9.904;2022-08-06T04:43:12;12.50;99.90
13642;DHT22;6894;52.196;9.904;2022-08-06T04:45:41;12.60;99.90
13642;DHT22;6894;52.196;9.904;2022-08-06T04:48:10;12.70;99.90
13642;DHT22;6894;52.196;9.904;2022-08-06T04:50:38;12.80;99.90
13642;DHT22;6894;52.196;9.904;2022-08-06T04:53:06;13.00;99.90
13642;DHT22;6894;52.196;9.904;2022-08-06T04:55:34;13.20;99.90
13642;DHT22;6894;52.196;9.904;2022-08-06T04:58:01;13.40;99.90
13642;DHT22;6894;52.196;9.904;2022-08-06T05:00:28;13.50;99.90
13642;DHT22;6894;52.196;9.904;2022-08-06T05:02:55;13.60;99.90
13642;DHT22;6894;52.196;9.904;2022-08-06T05:05:23;13.80;99.90
13642;DHT22;6894;52.196;9.904;2022-08-06T05:07:52;13.80;99.90
13642;DHT22;6894;52.196;9.904;2022-08-06T05:10:20;13.90;99.90
13642;DHT22;6894;52.196;9.904;2022-08-06T05:12:51;14.10;99.90
13642;DHT22;6894;52.196;9.904;2022-08-06T05:15:22;14.00;99.90
13642;DHT22;6894;52.196;9.904;2022-08-06T05:17:55;14.00;99.90
13642;DHT22;6894;52.196;9.904;2022-08-06T05:20:24;14.00;99.90
13642;DHT22;6894;52.196;9.904;2022-08-06T05:22:56;14.10;99.90
13642;DHT22;6894;52.196;9.904;2022-08-06T05:25:24;14.30;99.90
13642;DHT22;6894;52.196;9.904;2022-08-06T05:27:51;14.50;99.90
13642;DHT22;6894;52.196;9.904;2022-08-06T05:30:18;14.50;99.90
13642;DHT22;6894;52.196;9.904;2022-08-06T05:32:46;14.60;99.90
13642;DHT22;6894;52.196;9.904;2022-08-06T05:35:14;14.80;99.90
13642;DHT22;6894;52.196;9.904;2022-08-06T05:37:42;14.80;99.90
13642;DHT22;6894;52.196;9.904;2022-08-06T05:40:09;15.00;99.90
13642;DHT22;6894;52.196;9.904;2022-08-06T05:42:36;15.10;99.90
13642;DHT22;6894;52.196;9.904;2022-08-06T05:45:03;15.20;99.90
13642;DHT22;6894;52.196;9.904;2022-08-06T05:47:34;15.50;99.90
13642;DHT22;6894;52.196;9.904;2022-08-06T05:50:05;15.70;99.90
13642;DHT22;6894;52.196;9.904;2022-08-06T05:52:37;15.60;99.90
13642;DHT22;6894;52.196;9.904;2022-08-06T05:55:08;15.50;99.90
13642;DHT22;6894;52.196;9.904;2022-08-06T05:57:39;15.50;99.90
13642;DHT22;6894;52.196;9.904;2022-08-06T06:00:09;15.50;99.90
13642;DHT22;6894;52.196;9.904;2022-08-06T06:02:39;15.80;99.90
13642;DHT22;6894;52.196;9.904;2022-08-06T06:05:08;15.50;99.90
13642;DHT22;6894;52.196;9.904;2022-08-06T06:07:36;15.80;99.90
13642;DHT22;6894;52.196;9.904;2022-08-06T06:10:06;16.00;99.90
13642;DHT22;6894;52.196;9.904;2022-08-06T06:12:34;16.30;99.90
13642;DHT22;6894;52.196;9.904;2022-08-06T06:15:03;16.20;99.90
13642;DHT22;6894;52.196;9.904;2022-08-06T06:17:37;16.00;99.90
13642;DHT22;6894;52.196;9.904;2022-08-06T06:20:11;16.10;99.90
13642;DHT22;6894;52.196;9.904;2022-08-06T06:22:46;16.30;99.90
13642;DHT22;6894;52.196;9.904;2022-08-06T06:25:21;16.70;99.90
13642;DHT22;6894;52.196;9.904;2022-08-06T06:27:53;16.50;99.90
13642;DHT22;6894;52.196;9.904;2022-08-06T06:30:28;16.50;99.90
13642;DHT22;6894;52.196;9.904;2022-08-06T06:33:02;16.60;99.90
13642;DHT22;6894;52.196;9.904;2022-08-06T06:35:38;17.00;99.90
13642;DHT22;6894;52.196;9.904;2022-08-06T06:38:20;17.40;99.90
13642;DHT22;6894;52.196;9.904;2022-08-06T06:40:55;17.60;99.90
13642;DHT22;6894;52.196;9.904;2022-08-06T06:43:30;17.80;99.90
13642;DHT22;6894;52.196;9.904;2022-08-06T06:46:02;17.60;99.90
13642;DHT22;6894;52.196;9.904;2022-08-06T06:48:35;17.60;99.90
13642;DHT22;6894;52.196;9.904;2022-08-06T06:51:05;17.80;99.90
13642;DHT22;6894;52.196;9.904;2022-08-06T06:53:37;17.90;99.90
13642;DHT22;6894;52.196;9.904;2022-08-06T06:56:08;18.20;99.90
13642;DHT22;6894;52.196;9.904;2022-08-06T06:58:38;18.00;99.90
13642;DHT22;6894;52.196;9.904;2022-08-06T07:01:08;18.20;99.90
13642;DHT22;6894;52.196;9.904;2022-08-06T07:03:38;18.50;99.90
13642;DHT22;6894;52.196;9.904;2022-08-06T07:06:06;18.80;99.90
13642;DHT22;6894;52.196;9.904;2022-08-06T07:08:38;19.10;99.90
13642;DHT22;6894;52.196;9.904;2022-08-06T07:11:09;19.50;99.90
13642;DHT22;6894;52.196;9.904;2022-08-06T07:13:36;19.40;99.90
13642;DHT22;6894;52.196;9.904;2022-08-06T07:16:04;18.80;99.90
13642;DHT22;6894;52.196;9.904;2022-08-06T07:18:33;18.80;99.90
13642;DHT22;6894;52.196;9.904;2022-08-06T07:21:02;18.50;99.90
13642;DHT22;6894;52.196;9.904;2022-08-06T07:23:29;18.80;99.90
13642;DHT22;6894;52.196;9.904;2022-08-06T07:25:59;19.20;99.90
13642;DHT22;6894;52.196;9.904;2022-08-06T07:28:27;19.30;99.90
13642;DHT22;6894;52.196;9.904;2022-08-06T07:30:57;19.70;99.90
13642;DHT22;6894;52.196;9.904;2022-08-06T07:33:25;19.70;99.90
13642;DHT22;6894;52.196;9.904;2022-08-06T07:35:52;19.90;99.90
13642;DHT22;6894;52.196;9.904;2022-08-06T07:38:20;20.50;99.90
13642;DHT22;6894;52.196;9.904;2022-08-06T07:40:53;20.50;99.90
13642;DHT22;6894;52.196;9.904;2022-08-06T07:43:24;20.90;99.90
13642;DHT22;6894;52.196;9.904;2022-08-06T07:45:55;21.40;99.90
13642;DHT22;6894;52.196;9.904;2022-08-06T07:48:26;21.50;99.90
13642;DHT22;6894;52.196;9.904;2022-08-06T07:50:54;21.60;99.90
13642;DHT22;6894;52.196;9.904;2022-08-06T07:53:23;21.00;99.90
13642;DHT22;6894;52.196;9.904;2022-08-06T07:55:50;20.80;99.90
13642;DHT22;6894;52.196;9.904;2022-08-06T07:58:17;21.40;99.90
13642;DHT22;6894;52.196;9.904;2022-08-06T08:00:44;21.70;99.90
13642;DHT22;6894;52.196;9.904;2022-08-06T08:03:15;21.30;99.90
13642;DHT22;6894;52.196;9.904;2022-08-06T08:06:01;21.10;99.90
13642;DHT22;6894;52.196;9.904;2022-08-06T08:08:51;21.80;99.90
13642;DHT22;6894;52.196;9.904;2022-08-06T08:11:19;22.00;99.90
13642;DHT22;6894;52.196;9.904;2022-08-06T08:13:46;22.10;99.90
13642;DHT22;6894;52.196;9.904;2022-08-06T08:16:14;22.30;99.90
13642;DHT22;6894;52.196;9.904;2022-08-06T08:18:42;22.50;99.90
13642;DHT22;6894;52.196;9.904;2022-08-06T08:21:10;22.30;99.90
13642;DHT22;6894;52.196;9.904;2022-08-06T08:23:38;21.90;99.90
13642;DHT22;6894;52.196;9.904;2022-08-06T08:26:06;22.20;99.90
13642;DHT22;6894;52.196;9.904;2022-08-06T08:28:33;22.20;99.90
13642;DHT22;6894;52.196;9.904;2022-08-06T08:31:00;22.30;99.90
13642;DHT22;6894;52.196;9.904;2022-08-06T08:33:29;21.60;99.90
13642;DHT22;6894;52.196;9.904;2022-08-06T08:35:58;21.30;99.90
13642;DHT22;6894;52.196;9.904;2022-08-06T08:38:26;20.70;99.90
13642;DHT22;6894;52.196;9.904;2022-08-06T08:40:54;20.30;99.90
13642;DHT22;6894;52.196;9.904;2022-08-06T08:43:25;20.40;99.90
13642;DHT22;6894;52.196;9.904;2022-08-06T08:45:53;20.90;99.90
13642;DHT22;6894;52.196;9.904;2022-08-06T08:48:24;21.50;99.90
13642;DHT22;6894;52.196;9.904;2022-08-06T08:50:58;21.90;99.90
13642;DHT22;6894;52.196;9.904;2022-08-06T08:53:30;21.60;99.90
13642;DHT22;6894;52.196;9.904;2022-08-06T08:56:00;21.30;99.90
13642;DHT22;6894;52.196;9.904;2022-08-06T08:58:27;21.80;99.90
13642;DHT22;6894;52.196;9.904;2022-08-06T09:00:57;22.30;99.90
13642;DHT22;6894;52.196;9.904;2022-08-06T09:03:24;22.90;97.80
13642;DHT22;6894;52.196;9.904;2022-08-06T09:05:51;22.80;95.50
13642;DHT22;6894;52.196;9.904;2022-08-06T09:08:19;23.10;94.10
13642;DHT22;6894;52.196;9.904;2022-08-06T09:10:47;23.90;94.30
13642;DHT22;6894;52.196;9.904;2022-08-06T09:13:14;23.20;90.10
13642;DHT22;6894;52.196;9.904;2022-08-06T09:15:41;23.10;91.40
13642;DHT22;6894;52.196;9.904;2022-08-06T09:18:07;23.60;90.30
13642;DHT22;6894;52.196;9.904;2022-08-06T09:20:35;23.60;89.60
13642;DHT22;6894;52.196;9.904;2022-08-06T09:23:04;23.80;90.90
13642;DHT22;6894;52.196;9.904;2022-08-06T09:25:42;24.00;89.40
13642;DHT22;6894;52.196;9.904;2022-08-06T09:28:10;23.60;86.80
13642;DHT22;6894;52.196;9.904;2022-08-06T09:30:38;23.30;88.80
13642;DHT22;6894;52.196;9.904;2022-08-06T09:33:10;23.80;90.30
13642;DHT22;6894;52.196;9.904;2022-08-06T09:35:38;24.30;89.30
13642;DHT22;6894;52.196;9.904;2022-08-06T09:38:06;24.60;87.20
13642;DHT22;6894;52.196;9.904;2022-08-06T09:40:33;24.70;82.20
13642;DHT22;6894;52.196;9.904;2022-08-06T09:43:02;24.90;76.90
13642;DHT22;6894;52.196;9.904;2022-08-06T09:45:29;24.50;77.10
13642;DHT22;6894;52.196;9.904;2022-08-06T09:48:03;24.30;79.10
13642;DHT22;6894;52.196;9.904;2022-08-06T09:50:38;24.60;82.90
13642;DHT22;6894;52.196;9.904;2022-08-06T09:53:05;25.20;73.70
13642;DHT22;6894;52.196;9.904;2022-08-06T09:55:32;25.60;76.20
13642;DHT22;6894;52.196;9.904;2022-08-06T09:57:59;25.90;75.70
13642;DHT22;6894;52.196;9.904;2022-08-06T10:00:29;26.40;71.30
13642;DHT22;6894;52.196;9.904;2022-08-06T10:02:57;26.60;67.90
13642;DHT22;6894;52.196;9.904;2022-08-06T10:05:25;26.60;64.90
13642;DHT22;6894;52.196;9.904;2022-08-06T10:08:06;26.70;66.40
13642;DHT22;6894;52.196;9.904;2022-08-06T10:10:38;27.20;63.30
13642;DHT22;6894;52.196;9.904;2022-08-06T10:13:20;27.00;55.10
13642;DHT22;6894;52.196;9.904;2022-08-06T10:15:51;27.20;57.10
13642;DHT22;6894;52.196;9.904;2022-08-06T10:18:46;26.90;57.10
13642;DHT22;6894;52.196;9.904;2022-08-06T10:21:15;26.50;57.20
13642;DHT22;6894;52.196;9.904;2022-08-06T10:23:44;26.90;59.50
13642;DHT22;6894;52.196;9.904;2022-08-06T10:26:13;27.10;54.80
13642;DHT22;6894;52.196;9.904;2022-08-06T10:28:41;26.60;56.40
13642;DHT22;6894;52.196;9.904;2022-08-06T10:31:14;26.60;55.50
13642;DHT22;6894;52.196;9.904;2022-08-06T10:33:43;26.10;53.10
13642;DHT22;6894;52.196;9.904;2022-08-06T10:36:13;26.10;56.70
13642;DHT22;6894;52.196;9.904;2022-08-06T10:38:44;25.90;56.00
13642;DHT22;6894;52.196;9.904;2022-08-06T10:41:12;25.70;55.20
13642;DHT22;6894;52.196;9.904;2022-08-06T10:43:40;25.50;57.30
13642;DHT22;6894;52.196;9.904;2022-08-06T10:46:08;26.10;57.10
13642;DHT22;6894;52.196;9.904;2022-08-06T10:48:39;26.70;56.10
13642;DHT22;6894;52.196;9.904;2022-08-06T10:51:08;27.30;53.40
13642;DHT22;6894;52.196;9.904;2022-08-06T10:53:37;27.90;47.60
13642;DHT22;6894;52.196;9.904;2022-08-06T10:56:05;27.00;43.60
13642;DHT22;6894;52.196;9.904;2022-08-06T10:58:34;26.70;48.00
13642;DHT22;6894;52.196;9.904;2022-08-06T11:01:06;25.80;51.10
13642;DHT22;6894;52.196;9.904;2022-08-06T11:03:43;25.20;50.70
13642;DHT22;6894;52.196;9.904;2022-08-06T11:09:35;25.00;59.60
13642;DHT22;6894;52.196;9.904;2022-08-06T11:12:19;24.90;52.30
13642;DHT22;6894;52.196;9.904;2022-08-06T11:14:49;24.60;54.20
13642;DHT22;6894;52.196;9.904;2022-08-06T11:17:17;24.80;52.70
13642;DHT22;6894;52.196;9.904;2022-08-06T11:19:46;24.50;53.20
13642;DHT22;6894;52.196;9.904;2022-08-06T11:22:34;24.00;56.10
13642;DHT22;6894;52.196;9.904;2022-08-06T11:25:02;23.60;57.60
13642;DHT22;6894;52.196;9.904;2022-08-06T11:27:49;23.90;59.10
13642;DHT22;6894;52.196;9.904;2022-08-06T11:30:17;24.20;57.10
13642;DHT22;6894;52.196;9.904;2022-08-06T11:32:46;24.30;58.50
13642;DHT22;6894;52.196;9.904;2022-08-06T11:35:39;24.40;56.50
13642;DHT22;6894;52.196;9.904;2022-08-06T11:38:08;24.70;58.70
13642;DHT22;6894;52.196;9.904;2022-08-06T11:40:59;25.20;54.10
13642;DHT22;6894;52.196;9.904;2022-08-06T11:43:45;25.20;56.40
13642;DHT22;6894;52.196;9.904;2022-08-06T11:46:22;26.20;51.10
13642;DHT22;6894;52.196;9.904;2022-08-06T11:51:58;27.20;42.30
13642;DHT22;6894;52.196;9.904;2022-08-06T11:54:26;26.90;44.70
13642;DHT22;6894;52.196;9.904;2022-08-06T11:57:18;26.20;40.60
13642;DHT22;6894;52.196;9.904;2022-08-06T11:59:48;26.70;44.00
13642;DHT22;6894;52.196;9.904;2022-08-06T12:02:49;27.10;39.60
13642;DHT22;6894;52.196;9.904;2022-08-06T12:05:32;27.40;39.30
13642;DHT22;6894;52.196;9.904;2022-08-06T12:08:27;28.10;37.90
13642;DHT22;6894;52.196;9.904;2022-08-06T12:11:26;29.00;33.80
13642;DHT22;6894;52.196;9.904;2022-08-06T12:13:56;29.00;28.60
13642;DHT22;6894;52.196;9.904;2022-08-06T12:16:34;28.80;28.10
13642;DHT22;6894;52.196;9.904;2022-08-06T12:19:05;28.70;27.60
13642;DHT22;6894;52.196;9.904;2022-08-06T12:21:33;28.80;26.70
13642;DHT22;6894;52.196;9.904;2022-08-06T12:24:02;29.10;23.70
13642;DHT22;6894;52.196;9.904;2022-08-06T12:26:30;28.80;21.60
13642;DHT22;6894;52.196;9.904;2022-08-06T12:29:02;27.50;21.70
13642;DHT22;6894;52.196;9.904;2022-08-06T12:31:31;26.60;25.00
13642;DHT22;6894;52.196;9.904;2022-08-06T12:33:58;26.50;24.80
13642;DHT22;6894;52.196;9.904;2022-08-06T12:36:26;27.00;27.20
13642;DHT22;6894;52.196;9.904;2022-08-06T12:38:55;27.30;21.80
13642;DHT22;6894;52.196;9.904;2022-08-06T12:41:35;27.20;23.00
13642;DHT22;6894;52.196;9.904;2022-08-06T12:44:03;27.30;25.20
13642;DHT22;6894;52.196;9.904;2022-08-06T12:46:29;26.20;24.80
13642;DHT22;6894;52.196;9.904;2022-08-06T12:48:57;25.60;26.00
13642;DHT22;6894;52.196;9.904;2022-08-06T12:51:24;24.90;30.20
13642;DHT22;6894;52.196;9.904;2022-08-06T12:53:52;24.90;31.40
13642;DHT22;6894;52.196;9.904;2022-08-06T12:56:21;24.70;31.50
13642;DHT22;6894;52.196;9.904;2022-08-06T12:58:50;25.40;36.80
13642;DHT22;6894;52.196;9.904;2022-08-06T13:01:19;26.40;33.80
13642;DHT22;6894;52.196;9.904;2022-08-06T13:03:49;27.10;33.20
13642;DHT22;6894;52.196;9.904;2022-08-06T13:06:19;27.70;28.50
13642;DHT22;6894;52.196;9.904;2022-08-06T13:08:48;28.30;26.10
13642;DHT22;6894;52.196;9.904;2022-08-06T13:11:15;28.20;24.70
13642;DHT22;6894;52.196;9.904;2022-08-06T13:13:52;27.90;18.50
13642;DHT22;6894;52.196;9.904;2022-08-06T13:16:19;26.80;14.00
13642;DHT22;6894;52.196;9.904;2022-08-06T13:19:04;25.80;21.10
13642;DHT22;6894;52.196;9.904;2022-08-06T13:21:31;25.40;20.30
13642;DHT22;6894;52.196;9.904;2022-08-06T13:23:58;25.40;20.90
13642;DHT22;6894;52.196;9.904;2022-08-06T13:26:27;25.60;19.90
13642;DHT22;6894;52.196;9.904;2022-08-06T13:29:10;26.00;18.80
13642;DHT22;6894;52.196;9.904;2022-08-06T13:31:39;26.00;18.80
13642;DHT22;6894;52.196;9.904;2022-08-06T13:34:08;26.10;18.80
13642;DHT22;6894;52.196;9.904;2022-08-06T13:36:37;25.40;18.60
13642;DHT22;6894;52.196;9.904;2022-08-06T13:39:19;25.10;21.20
13642;DHT22;6894;52.196;9.904;2022-08-06T13:41:47;25.40;22.10
13642;DHT22;6894;52.196;9.904;2022-08-06T13:44:28;25.70;20.00
13642;DHT22;6894;52.196;9.904;2022-08-06T13:46:55;25.50;20.00
13642;DHT22;6894;52.196;9.904;2022-08-06T13:49:22;25.70;19.30
13642;DHT22;6894;52.196;9.904;2022-08-06T13:51:49;25.80;15.80
13642;DHT22;6894;52.196;9.904;2022-08-06T13:54:16;25.70;16.10
13642;DHT22;6894;52.196;9.904;2022-08-06T13:56:43;26.10;17.50
13642;DHT22;6894;52.196;9.904;2022-08-06T13:59:10;26.00;16.00
13642;DHT22;6894;52.196;9.904;2022-08-06T14:01:38;25.40;17.30
13642;DHT22;6894;52.196;9.904;2022-08-06T14:04:05;25.70;19.00
13642;DHT22;6894;52.196;9.904;2022-08-06T14:06:31;26.20;17.20
13642;DHT22;6894;52.196;9.904;2022-08-06T14:08:58;26.60;17.30
13642;DHT22;6894;52.196;9.904;2022-08-06T14:11:27;27.20;20.10
13642;DHT22;6894;52.196;9.904;2022-08-06T14:13:54;27.60;16.20
13642;DHT22;6894;52.196;9.904;2022-08-06T14:16:21;28.10;18.70
13642;DHT22;6894;52.196;9.904;2022-08-06T14:18:49;28.20;15.70
13642;DHT22;6894;52.196;9.904;2022-08-06T14:21:16;27.60;14.60
13642;DHT22;6894;52.196;9.904;2022-08-06T14:23:42;28.20;15.90
13642;DHT22;6894;52.196;9.904;2022-08-06T14:26:09;27.80;12.70
13642;DHT22;6894;52.196;9.904;2022-08-06T14:28:36;27.50;13.50
13642;DHT22;6894;52.196;9.904;2022-08-06T14:31:03;28.00;12.70
13642;DHT22;6894;52.196;9.904;2022-08-06T14:33:30;27.90;14.60
13642;DHT22;6894;52.196;9.904;2022-08-06T14:35:59;28.30;11.60
13642;DHT22;6894;52.196;9.904;2022-08-06T14:38:26;27.00;10.90
13642;DHT22;6894;52.196;9.904;2022-08-06T14:40:53;26.60;12.60
13642;DHT22;6894;52.196;9.904;2022-08-06T14:43:37;26.90;14.00
13642;DHT22;6894;52.196;9.904;2022-08-06T14:46:21;26.80;13.70
13642;DHT22;6894;52.196;9.904;2022-08-06T14:48:48;27.40;13.40
13642;DHT22;6894;52.196;9.904;2022-08-06T14:51:17;27.50;10.30
13642;DHT22;6894;52.196;9.904;2022-08-06T14:53:44;26.40;10.40
13642;DHT22;6894;52.196;9.904;2022-08-06T14:56:10;26.20;11.80
13642;DHT22;6894;52.196;9.904;2022-08-06T14:58:37;26.10;9.00
13642;DHT22;6894;52.196;9.904;2022-08-06T15:01:04;26.00;11.60
13642;DHT22;6894;52.196;9.904;2022-08-06T15:03:31;26.10;10.30
13642;DHT22;6894;52.196;9.904;2022-08-06T15:05:57;26.30;8.50
13642;DHT22;6894;52.196;9.904;2022-08-06T15:08:27;26.20;11.00
13642;DHT22;6894;52.196;9.904;2022-08-06T15:10:54;25.80;8.10
13642;DHT22;6894;52.196;9.904;2022-08-06T15:13:21;25.80;7.90
13642;DHT22;6894;52.196;9.904;2022-08-06T15:15:48;26.00;8.10
13642;DHT22;6894;52.196;9.904;2022-08-06T15:18:15;26.40;9.40
13642;DHT22;6894;52.196;9.904;2022-08-06T15:20:42;26.80;7.10
13642;DHT22;6894;52.196;9.904;2022-08-06T15:23:09;27.10;8.00
13642;DHT22;6894;52.196;9.904;2022-08-06T15:25:37;27.00;5.00
13642;DHT22;6894;52.196;9.904;2022-08-06T15:28:04;26.60;7.40
13642;DHT22;6894;52.196;9.904;2022-08-06T15:30:31;26.10;9.50
13642;DHT22;6894;52.196;9.904;2022-08-06T15:32:58;26.10;8.00
13642;DHT22;6894;52.196;9.904;2022-08-06T15:35:26;26.10;6.50
13642;DHT22;6894;52.196;9.904;2022-08-06T15:37:53;25.60;7.40
13642;DHT22;6894;52.196;9.904;2022-08-06T15:40:20;25.50;8.10
13642;DHT22;6894;52.196;9.904;2022-08-06T15:42:48;25.70;9.50
13642;DHT22;6894;52.196;9.904;2022-08-06T15:45:14;25.90;9.70
13642;DHT22;6894;52.196;9.904;2022-08-06T15:47:41;25.80;11.20
13642;DHT22;6894;52.196;9.904;2022-08-06T15:50:08;25.40;10.00
13642;DHT22;6894;52.196;9.904;2022-08-06T15:52:35;25.40;10.00
13642;DHT22;6894;52.196;9.904;2022-08-06T15:55:04;25.10;11.60
13642;DHT22;6894;52.196;9.904;2022-08-06T15:57:31;24.90;11.30
13642;DHT22;6894;52.196;9.904;2022-08-06T15:59:59;24.50;10.80
13642;DHT22;6894;52.196;9.904;2022-08-06T16:02:26;24.50;13.00
13642;DHT22;6894;52.196;9.904;2022-08-06T16:04:53;24.90;13.30
13642;DHT22;6894;52.196;9.904;2022-08-06T16:07:20;25.20;13.20
13642;DHT22;6894;52.196;9.904;2022-08-06T16:09:46;25.40;11.90
13642;DHT22;6894;52.196;9.904;2022-08-06T16:12:14;25.70;14.00